Observations for STORNOWAY, United Kingdom (EGPO)

EGPO 140820Z 20008KT 9999 -SHRA SCT006 BKN013 BKN021 14/13 Q1006
EGPO 140750Z 19010KT 9999 -SHRA FEW006 SCT017 BKN026 14/13 Q1006
EGPO 140720Z 22008KT 9999 FEW006 SCT017 BKN026 14/12 Q1006  
EGPO 140650Z 21007KT 9999 FEW006 SCT017 BKN030 14/12 Q1006  
EGPO 140620Z 22006KT 9999 FEW006 SCT017 BKN030 14/13 Q1006  
EGPO 140550Z 21006KT 9999 FEW006 SCT011 BKN017 14/13 Q1006  
EGPO 140520Z 21007KT 9999 SCT006 BKN011 13/13 Q1006 
EGPO 140450Z 21009KT 8000 BKN006 BKN013 13/13 Q1006 
EGPO 140420Z 20010KT 9999 BKN007 BKN016 13/13 Q1006 
EGPO 140350Z AUTO 21010KT 9999 SCT008/// BKN038/// 13/13 Q1006  
EGPO 140320Z AUTO 21009KT 9999 FEW010/// BKN018/// BKN034/// 13/12 Q1007
EGPO 140250Z AUTO 21009KT 9999 FEW016/// OVC030/// 13/12 Q1007  
EGPO 140220Z AUTO 21006KT 9999 BKN015/// BKN023/// OVC027/// 13/13 Q1007
EGPO 140150Z AUTO 21007KT 9999 BKN010/// OVC018/// 14/13 Q1007  
EGPO 140120Z AUTO 21006KT 9999 BKN015/// BKN023/// OVC046/// 13/13 Q1007
EGPO 140050Z AUTO 20006KT 9999 FEW019/// BKN023/// OVC030/// 13/13 Q1007
EGPO 140020Z AUTO 20009KT 9999 SCT007/// BKN018/// BKN025/// 13/13 Q1007
EGPO 132350Z AUTO 20008KT 9999 BKN006/// OVC031/// 14/13 Q1007  
EGPO 132320Z AUTO 20010KT 9999 BKN007/// BKN029/// OVC035/// 14/13 Q1007
EGPO 132250Z AUTO 21011KT 9999 BKN007/// OVC018/// 14/13 Q1007  
EGPO 132220Z AUTO 21010KT 9999 OVC007/// 14/13 Q1007
EGPO 132150Z AUTO 21011KT 9999 BKN008/// OVC019/// 14/13 Q1008  
EGPO 132120Z AUTO 21011KT 9999 OVC019/// 14/13 Q1008
EGPO 132050Z AUTO 21007KT 9999 BKN016/// OVC025/// 14/13 Q1008  
EGPO 132020Z AUTO 22011KT 9999 BKN020/// BKN026/// 14/13 Q1008  
EGPO 131950Z AUTO 20009KT 9999 FEW018/// OVC023/// 14/13 Q1008  
EGPO 131920Z AUTO 22009KT 9999 BKN030/// OVC038/// 15/13 Q1008  
EGPO 131850Z AUTO 22005KT 9999 SCT010/// BKN016/// OVC025/// 15/14 Q1007
EGPO 131820Z 22009KT 9999 -DZ FEW006 BKN010 BKN017 15/14 Q1007  
EGPO 131750Z 21010KT 9999 VCSH SCT009 BKN017 15/14 Q1007
EGPO 131720Z 21011KT 9999 VCSH FEW006 SCT009 BKN020 16/14 Q1007 
EGPO 131650Z 20009KT 9999 FEW004 SCT007 BKN018 16/15 Q1007  
EGPO 131620Z 20009KT 9999 6000N -DZ SCT006 BKN015 15/14 Q1007   
EGPO 131550Z 19011KT 9999 VCSH FEW005 SCT010 BKN020 16/14 Q1007 
EGPO 131520Z 19011KT 9999 SCT012 BKN027 16/14 Q1007 
EGPO 131450Z 18010KT 9999 FEW008 SCT013 BKN044 15/14 Q1007  
EGPO 131420Z 19008KT 9999 SCT007 BKN044 15/14 Q1007 
EGPO 131350Z 19007KT 9999 FEW005 BKN008 OVC040 15/14 Q1007  
EGPO 131320Z 18009KT 9999 FEW004 BKN006 14/14 Q1008 
EGPO 131250Z 18007KT 9999 -DZ FEW003 BKN006 14/14 Q1008 
EGPO 131220Z 18008KT 6000 -DZ FEW003 BKN005 14/14 Q1008 
EGPO 131150Z 17007KT 8000 FEW003 SCT005 OVC008 14/13 Q1008  
EGPO 131120Z 18007KT 8000 SCT003 BKN004 OVC006 14/14 Q1008  
EGPO 131050Z 17008KT 8000 BKN003 OVC004 14/14 Q1007 
EGPO 131020Z 16008KT 8000 BKN003 OVC004 14/14 Q1007 
EGPO 130950Z 16008KT 6000 -DZ SCT003 OVC004 14/14 Q1007 
EGPO 130920Z 16006KT 3000 -DZ BR BKN003 OVC004 14/13 Q1007  
EGPO 130850Z 17006KT 2500 -RADZ BR SCT003 OVC004 13/13 Q1007
EGPO 130820Z 16006KT 6000 -DZ SCT003 BKN004 OVC010 13/13 Q1007  
EGPO 130750Z 15006KT 6000 -DZ SCT003 BKN004 OVC010 13/13 Q1007